sensor_id;sensor_type;location;lat;lon;timestamp;temperature;humidity
44775;DHT22;31340;51.402;0.016;2023-06-26T00:00:39;20.20;69.10
44775;DHT22;31340;51.402;0.016;2023-06-26T00:03:07;20.20;69.90
44775;DHT22;31340;51.402;0.016;2023-06-26T00:05:35;20.20;69.70
44775;DHT22;31340;51.402;0.016;2023-06-26T00:08:03;20.10;70.10
44775;DHT22;31340;51.402;0.016;2023-06-26T00:10:31;20.10;70.40
44775;DHT22;31340;51.402;0.016;2023-06-26T00:12:59;20.10;70.70
44775;DHT22;31340;51.402;0.016;2023-06-26T00:15:27;20.00;71.00
44775;DHT22;31340;51.402;0.016;2023-06-26T00:17:59;20.00;71.40
44775;DHT22;31340;51.402;0.016;2023-06-26T00:20:27;20.00;71.70
44775;DHT22;31340;51.402;0.016;2023-06-26T00:22:54;20.00;71.90
44775;DHT22;31340;51.402;0.016;2023-06-26T00:25:24;19.90;72.20
44775;DHT22;31340;51.402;0.016;2023-06-26T00:27:51;19.90;72.50
44775;DHT22;31340;51.402;0.016;2023-06-26T00:30:19;19.80;72.70
44775;DHT22;31340;51.402;0.016;2023-06-26T00:32:47;19.80;73.00
44775;DHT22;31340;51.402;0.016;2023-06-26T00:35:15;19.80;73.30
44775;DHT22;31340;51.402;0.016;2023-06-26T00:37:44;19.80;73.50
44775;DHT22;31340;51.402;0.016;2023-06-26T00:40:12;19.70;73.70
44775;DHT22;31340;51.402;0.016;2023-06-26T00:42:40;19.70;74.10
44775;DHT22;31340;51.402;0.016;2023-06-26T00:45:08;19.70;74.30
44775;DHT22;31340;51.402;0.016;2023-06-26T00:47:37;19.60;74.60
44775;DHT22;31340;51.402;0.016;2023-06-26T00:50:06;19.60;74.90
44775;DHT22;31340;51.402;0.016;2023-06-26T00:52:35;19.60;75.20
44775;DHT22;31340;51.402;0.016;2023-06-26T00:55:03;19.50;75.40
44775;DHT22;31340;51.402;0.016;2023-06-26T00:57:31;19.50;75.80
44775;DHT22;31340;51.402;0.016;2023-06-26T01:00:01;19.50;76.00
44775;DHT22;31340;51.402;0.016;2023-06-26T01:02:31;19.40;76.20
44775;DHT22;31340;51.402;0.016;2023-06-26T01:05:03;19.40;76.50
44775;DHT22;31340;51.402;0.016;2023-06-26T01:07:36;19.40;76.70
44775;DHT22;31340;51.402;0.016;2023-06-26T01:10:06;19.30;76.90
44775;DHT22;31340;51.402;0.016;2023-06-26T01:12:34;19.30;77.20
44775;DHT22;31340;51.402;0.016;2023-06-26T01:15:03;19.30;77.50
44775;DHT22;31340;51.402;0.016;2023-06-26T01:17:31;19.30;77.90
44775;DHT22;31340;51.402;0.016;2023-06-26T01:20:00;19.30;78.10
44775;DHT22;31340;51.402;0.016;2023-06-26T01:28:10;19.10;78.70
44775;DHT22;31340;51.402;0.016;2023-06-26T01:30:42;19.10;78.90
44775;DHT22;31340;51.402;0.016;2023-06-26T01:33:12;19.10;79.50
44775;DHT22;31340;51.402;0.016;2023-06-26T01:35:40;19.00;79.60
44775;DHT22;31340;51.402;0.016;2023-06-26T01:38:16;19.00;79.80
44775;DHT22;31340;51.402;0.016;2023-06-26T01:40:45;19.00;80.30
44775;DHT22;31340;51.402;0.016;2023-06-26T01:43:37;18.90;80.30
44775;DHT22;31340;51.402;0.016;2023-06-26T01:46:39;18.90;80.90
44775;DHT22;31340;51.402;0.016;2023-06-26T01:52:14;18.80;81.10
44775;DHT22;31340;51.402;0.016;2023-06-26T01:57:31;18.80;82.10
44775;DHT22;31340;51.402;0.016;2023-06-26T01:59:59;18.70;81.90
44775;DHT22;31340;51.402;0.016;2023-06-26T02:02:31;18.70;82.20
44775;DHT22;31340;51.402;0.016;2023-06-26T02:04:58;18.70;82.60
44775;DHT22;31340;51.402;0.016;2023-06-26T02:07:26;18.60;82.60
44775;DHT22;31340;51.402;0.016;2023-06-26T02:09:55;18.60;83.80
44775;DHT22;31340;51.402;0.016;2023-06-26T02:12:23;18.60;83.20
44775;DHT22;31340;51.402;0.016;2023-06-26T02:14:51;18.60;83.50
44775;DHT22;31340;51.402;0.016;2023-06-26T02:17:23;18.50;83.60
44775;DHT22;31340;51.402;0.016;2023-06-26T02:19:54;18.50;83.80
44775;DHT22;31340;51.402;0.016;2023-06-26T02:22:22;18.50;84.00
44775;DHT22;31340;51.402;0.016;2023-06-26T02:24:49;18.40;84.20
44775;DHT22;31340;51.402;0.016;2023-06-26T02:27:17;18.40;84.40
44775;DHT22;31340;51.402;0.016;2023-06-26T02:29:45;18.40;84.70
44775;DHT22;31340;51.402;0.016;2023-06-26T02:32:12;18.40;85.00
44775;DHT22;31340;51.402;0.016;2023-06-26T02:34:40;18.40;85.20
44775;DHT22;31340;51.402;0.016;2023-06-26T02:37:08;18.30;85.40
44775;DHT22;31340;51.402;0.016;2023-06-26T02:39:37;18.30;85.70
44775;DHT22;31340;51.402;0.016;2023-06-26T02:42:06;18.30;85.90
44775;DHT22;31340;51.402;0.016;2023-06-26T02:44:34;18.30;86.00
44775;DHT22;31340;51.402;0.016;2023-06-26T02:47:02;18.30;86.40
44775;DHT22;31340;51.402;0.016;2023-06-26T02:49:31;18.20;86.50
44775;DHT22;31340;51.402;0.016;2023-06-26T02:51:58;18.20;86.90
44775;DHT22;31340;51.402;0.016;2023-06-26T02:54:28;18.20;87.20
44775;DHT22;31340;51.402;0.016;2023-06-26T02:57:02;18.20;87.30
44775;DHT22;31340;51.402;0.016;2023-06-26T02:59:32;18.10;87.60
44775;DHT22;31340;51.402;0.016;2023-06-26T03:02:00;18.10;87.90
44775;DHT22;31340;51.402;0.016;2023-06-26T03:04:33;18.10;88.20
44775;DHT22;31340;51.402;0.016;2023-06-26T03:07:05;18.10;88.40
44775;DHT22;31340;51.402;0.016;2023-06-26T03:09:33;18.00;88.70
44775;DHT22;31340;51.402;0.016;2023-06-26T03:12:02;18.00;88.80
44775;DHT22;31340;51.402;0.016;2023-06-26T03:14:32;18.00;89.20
44775;DHT22;31340;51.402;0.016;2023-06-26T03:17:00;18.00;89.30
44775;DHT22;31340;51.402;0.016;2023-06-26T03:19:32;18.00;89.80
44775;DHT22;31340;51.402;0.016;2023-06-26T03:22:20;17.90;89.90
44775;DHT22;31340;51.402;0.016;2023-06-26T03:24:48;17.90;90.10
44775;DHT22;31340;51.402;0.016;2023-06-26T03:27:16;17.90;90.20
44775;DHT22;31340;51.402;0.016;2023-06-26T03:29:47;17.90;90.30
44775;DHT22;31340;51.402;0.016;2023-06-26T03:32:16;17.80;90.00
44775;DHT22;31340;51.402;0.016;2023-06-26T03:34:44;17.80;90.30
44775;DHT22;31340;51.402;0.016;2023-06-26T03:37:12;17.80;90.50
44775;DHT22;31340;51.402;0.016;2023-06-26T03:39:40;17.80;90.60
44775;DHT22;31340;51.402;0.016;2023-06-26T03:42:08;17.80;90.70
44775;DHT22;31340;51.402;0.016;2023-06-26T03:44:36;17.80;90.90
44775;DHT22;31340;51.402;0.016;2023-06-26T03:47:04;17.80;91.00
44775;DHT22;31340;51.402;0.016;2023-06-26T03:49:31;17.70;91.10
44775;DHT22;31340;51.402;0.016;2023-06-26T03:51:59;17.70;91.20
44775;DHT22;31340;51.402;0.016;2023-06-26T03:54:27;17.70;91.30
44775;DHT22;31340;51.402;0.016;2023-06-26T03:56:55;17.70;91.40
44775;DHT22;31340;51.402;0.016;2023-06-26T03:59:23;17.70;91.60
44775;DHT22;31340;51.402;0.016;2023-06-26T04:01:50;17.70;91.60
44775;DHT22;31340;51.402;0.016;2023-06-26T04:04:20;17.70;91.70
44775;DHT22;31340;51.402;0.016;2023-06-26T04:06:48;17.60;91.80
44775;DHT22;31340;51.402;0.016;2023-06-26T04:09:15;17.60;92.00
44775;DHT22;31340;51.402;0.016;2023-06-26T04:11:44;17.60;92.10
44775;DHT22;31340;51.402;0.016;2023-06-26T04:14:12;17.60;92.20
44775;DHT22;31340;51.402;0.016;2023-06-26T04:16:40;17.60;92.30
44775;DHT22;31340;51.402;0.016;2023-06-26T04:19:08;17.50;92.40
44775;DHT22;31340;51.402;0.016;2023-06-26T04:21:37;17.60;92.50
44775;DHT22;31340;51.402;0.016;2023-06-26T04:24:05;17.60;92.50
44775;DHT22;31340;51.402;0.016;2023-06-26T04:26:33;17.50;92.60
44775;DHT22;31340;51.402;0.016;2023-06-26T04:29:01;17.50;92.60
44775;DHT22;31340;51.402;0.016;2023-06-26T04:31:29;17.50;92.70
44775;DHT22;31340;51.402;0.016;2023-06-26T04:33:56;17.50;92.80
44775;DHT22;31340;51.402;0.016;2023-06-26T04:36:25;17.50;92.90
44775;DHT22;31340;51.402;0.016;2023-06-26T04:38:56;17.60;93.00
44775;DHT22;31340;51.402;0.016;2023-06-26T04:41:23;17.50;92.60
44775;DHT22;31340;51.402;0.016;2023-06-26T04:43:51;17.50;92.90
44775;DHT22;31340;51.402;0.016;2023-06-26T04:46:18;17.50;93.00
44775;DHT22;31340;51.402;0.016;2023-06-26T04:48:46;17.60;93.10
44775;DHT22;31340;51.402;0.016;2023-06-26T04:51:14;17.60;93.10
44775;DHT22;31340;51.402;0.016;2023-06-26T04:53:42;17.60;93.10
44775;DHT22;31340;51.402;0.016;2023-06-26T04:56:10;17.60;93.50
44775;DHT22;31340;51.402;0.016;2023-06-26T04:58:38;17.60;93.20
44775;DHT22;31340;51.402;0.016;2023-06-26T05:01:06;17.60;93.20
44775;DHT22;31340;51.402;0.016;2023-06-26T05:03:34;17.60;93.30
44775;DHT22;31340;51.402;0.016;2023-06-26T05:06:03;17.60;93.30
44775;DHT22;31340;51.402;0.016;2023-06-26T05:08:36;17.60;93.30
44775;DHT22;31340;51.402;0.016;2023-06-26T05:11:04;17.60;93.30
44775;DHT22;31340;51.402;0.016;2023-06-26T05:13:32;17.60;93.40
44775;DHT22;31340;51.402;0.016;2023-06-26T05:15:59;17.70;93.40
44775;DHT22;31340;51.402;0.016;2023-06-26T05:18:27;17.70;93.40
44775;DHT22;31340;51.402;0.016;2023-06-26T05:20:55;17.70;93.40
44775;DHT22;31340;51.402;0.016;2023-06-26T05:23:25;17.70;93.40
44775;DHT22;31340;51.402;0.016;2023-06-26T05:25:54;17.80;93.40
44775;DHT22;31340;51.402;0.016;2023-06-26T05:28:22;17.80;93.30
44775;DHT22;31340;51.402;0.016;2023-06-26T05:30:52;17.80;93.30
44775;DHT22;31340;51.402;0.016;2023-06-26T05:33:22;17.80;93.30
44775;DHT22;31340;51.402;0.016;2023-06-26T05:35:53;17.80;93.30
44775;DHT22;31340;51.402;0.016;2023-06-26T05:38:22;17.90;93.30
44775;DHT22;31340;51.402;0.016;2023-06-26T05:40:50;17.80;93.20
44775;DHT22;31340;51.402;0.016;2023-06-26T05:43:17;17.90;93.20
44775;DHT22;31340;51.402;0.016;2023-06-26T05:45:54;17.90;93.20
44775;DHT22;31340;51.402;0.016;2023-06-26T05:48:21;17.90;93.20
44775;DHT22;31340;51.402;0.016;2023-06-26T05:50:49;18.00;93.20
44775;DHT22;31340;51.402;0.016;2023-06-26T05:53:17;18.00;93.10
44775;DHT22;31340;51.402;0.016;2023-06-26T05:55:45;18.00;93.10
44775;DHT22;31340;51.402;0.016;2023-06-26T05:58:13;18.10;93.00
44775;DHT22;31340;51.402;0.016;2023-06-26T06:00:42;18.10;93.00
44775;DHT22;31340;51.402;0.016;2023-06-26T06:03:10;18.10;93.00
44775;DHT22;31340;51.402;0.016;2023-06-26T06:05:38;18.20;92.90
44775;DHT22;31340;51.402;0.016;2023-06-26T06:08:06;18.30;92.90
44775;DHT22;31340;51.402;0.016;2023-06-26T06:10:34;18.30;92.80
44775;DHT22;31340;51.402;0.016;2023-06-26T06:13:01;18.40;92.80
44775;DHT22;31340;51.402;0.016;2023-06-26T06:15:29;18.40;92.60
44775;DHT22;31340;51.402;0.016;2023-06-26T06:17:57;18.40;92.60
44775;DHT22;31340;51.402;0.016;2023-06-26T06:20:25;18.50;92.90
44775;DHT22;31340;51.402;0.016;2023-06-26T06:22:53;18.50;92.50
44775;DHT22;31340;51.402;0.016;2023-06-26T06:25:20;18.50;92.30
44775;DHT22;31340;51.402;0.016;2023-06-26T06:27:48;18.50;92.30
44775;DHT22;31340;51.402;0.016;2023-06-26T06:30:16;18.60;92.20
44775;DHT22;31340;51.402;0.016;2023-06-26T06:32:52;18.60;92.10
44775;DHT22;31340;51.402;0.016;2023-06-26T06:35:20;18.70;92.00
44775;DHT22;31340;51.402;0.016;2023-06-26T06:37:52;18.70;92.00
44775;DHT22;31340;51.402;0.016;2023-06-26T06:40:20;18.70;91.90
44775;DHT22;31340;51.402;0.016;2023-06-26T06:42:50;18.70;91.80
44775;DHT22;31340;51.402;0.016;2023-06-26T06:45:19;18.80;91.70
44775;DHT22;31340;51.402;0.016;2023-06-26T06:47:47;18.80;91.70
44775;DHT22;31340;51.402;0.016;2023-06-26T06:50:14;18.80;91.70
44775;DHT22;31340;51.402;0.016;2023-06-26T06:52:43;18.80;91.60
44775;DHT22;31340;51.402;0.016;2023-06-26T06:55:11;18.90;91.60
44775;DHT22;31340;51.402;0.016;2023-06-26T06:57:40;18.90;91.50
44775;DHT22;31340;51.402;0.016;2023-06-26T07:00:12;19.00;91.50
44775;DHT22;31340;51.402;0.016;2023-06-26T07:02:45;19.00;91.40
44775;DHT22;31340;51.402;0.016;2023-06-26T07:05:14;19.10;91.30
44775;DHT22;31340;51.402;0.016;2023-06-26T07:07:42;19.10;91.10
44775;DHT22;31340;51.402;0.016;2023-06-26T07:10:12;19.10;91.10
44775;DHT22;31340;51.402;0.016;2023-06-26T07:12:40;19.20;91.00
44775;DHT22;31340;51.402;0.016;2023-06-26T07:15:08;19.20;91.00
44775;DHT22;31340;51.402;0.016;2023-06-26T07:17:36;19.20;90.90
44775;DHT22;31340;51.402;0.016;2023-06-26T07:20:07;19.30;90.80
44775;DHT22;31340;51.402;0.016;2023-06-26T07:22:36;19.30;90.70
44775;DHT22;31340;51.402;0.016;2023-06-26T07:25:04;19.30;90.70
44775;DHT22;31340;51.402;0.016;2023-06-26T07:27:37;19.30;90.60
44775;DHT22;31340;51.402;0.016;2023-06-26T07:30:05;19.40;90.40
44775;DHT22;31340;51.402;0.016;2023-06-26T07:32:37;19.50;90.30
44775;DHT22;31340;51.402;0.016;2023-06-26T07:35:05;19.50;90.20
44775;DHT22;31340;51.402;0.016;2023-06-26T07:37:33;19.60;89.80
44775;DHT22;31340;51.402;0.016;2023-06-26T07:40:00;19.60;89.50
44775;DHT22;31340;51.402;0.016;2023-06-26T07:42:28;19.70;89.60
44775;DHT22;31340;51.402;0.016;2023-06-26T07:44:55;19.70;89.50
44775;DHT22;31340;51.402;0.016;2023-06-26T07:47:23;19.80;89.00
44775;DHT22;31340;51.402;0.016;2023-06-26T07:49:51;19.90;88.70
44775;DHT22;31340;51.402;0.016;2023-06-26T07:52:19;19.90;88.40
44775;DHT22;31340;51.402;0.016;2023-06-26T07:54:46;20.00;88.10
44775;DHT22;31340;51.402;0.016;2023-06-26T07:57:14;20.00;87.60
44775;DHT22;31340;51.402;0.016;2023-06-26T07:59:42;20.10;87.20
44775;DHT22;31340;51.402;0.016;2023-06-26T08:02:10;20.10;87.10
44775;DHT22;31340;51.402;0.016;2023-06-26T08:04:38;20.20;86.90
44775;DHT22;31340;51.402;0.016;2023-06-26T08:07:06;20.30;86.70
44775;DHT22;31340;51.402;0.016;2023-06-26T08:09:34;20.30;86.20
44775;DHT22;31340;51.402;0.016;2023-06-26T08:12:02;20.30;85.70
44775;DHT22;31340;51.402;0.016;2023-06-26T08:14:30;20.40;84.90
44775;DHT22;31340;51.402;0.016;2023-06-26T08:16:58;20.50;84.60
44775;DHT22;31340;51.402;0.016;2023-06-26T08:19:27;20.50;84.10
44775;DHT22;31340;51.402;0.016;2023-06-26T08:21:55;20.60;84.10
44775;DHT22;31340;51.402;0.016;2023-06-26T08:24:23;20.60;83.80
44775;DHT22;31340;51.402;0.016;2023-06-26T08:26:51;20.70;83.80
44775;DHT22;31340;51.402;0.016;2023-06-26T08:29:19;20.80;82.70
44775;DHT22;31340;51.402;0.016;2023-06-26T08:31:46;20.90;82.60
44775;DHT22;31340;51.402;0.016;2023-06-26T08:34:14;21.00;82.40
44775;DHT22;31340;51.402;0.016;2023-06-26T08:36:42;21.00;82.20
44775;DHT22;31340;51.402;0.016;2023-06-26T08:39:10;21.10;82.20
44775;DHT22;31340;51.402;0.016;2023-06-26T08:41:38;21.30;81.80
44775;DHT22;31340;51.402;0.016;2023-06-26T08:44:06;21.40;81.40
44775;DHT22;31340;51.402;0.016;2023-06-26T08:46:34;21.40;80.90
44775;DHT22;31340;51.402;0.016;2023-06-26T08:49:28;21.50;80.10
44775;DHT22;31340;51.402;0.016;2023-06-26T08:52:13;21.60;79.50
44775;DHT22;31340;51.402;0.016;2023-06-26T08:54:46;21.70;79.20
44775;DHT22;31340;51.402;0.016;2023-06-26T08:57:18;21.70;78.40
44775;DHT22;31340;51.402;0.016;2023-06-26T08:59:47;21.70;77.30
44775;DHT22;31340;51.402;0.016;2023-06-26T09:02:15;21.80;76.20
44775;DHT22;31340;51.402;0.016;2023-06-26T09:04:43;21.80;75.80
44775;DHT22;31340;51.402;0.016;2023-06-26T09:07:11;21.90;75.50
44775;DHT22;31340;51.402;0.016;2023-06-26T09:09:39;21.80;75.30
44775;DHT22;31340;51.402;0.016;2023-06-26T09:12:08;22.00;74.80
44775;DHT22;31340;51.402;0.016;2023-06-26T09:14:37;21.90;75.00
44775;DHT22;31340;51.402;0.016;2023-06-26T09:17:05;22.00;72.40
44775;DHT22;31340;51.402;0.016;2023-06-26T09:19:37;22.00;71.60
44775;DHT22;31340;51.402;0.016;2023-06-26T09:22:11;22.00;71.10
44775;DHT22;31340;51.402;0.016;2023-06-26T09:24:41;22.00;70.70
44775;DHT22;31340;51.402;0.016;2023-06-26T09:27:09;22.10;70.90
44775;DHT22;31340;51.402;0.016;2023-06-26T09:29:38;22.10;69.80
44775;DHT22;31340;51.402;0.016;2023-06-26T09:32:08;22.20;70.30
44775;DHT22;31340;51.402;0.016;2023-06-26T09:34:37;22.20;68.90
44775;DHT22;31340;51.402;0.016;2023-06-26T09:37:08;22.30;67.80
44775;DHT22;31340;51.402;0.016;2023-06-26T09:39:38;22.30;67.90
44775;DHT22;31340;51.402;0.016;2023-06-26T09:42:06;22.40;67.50
44775;DHT22;31340;51.402;0.016;2023-06-26T09:44:34;22.40;66.80
44775;DHT22;31340;51.402;0.016;2023-06-26T09:47:02;22.50;66.60
44775;DHT22;31340;51.402;0.016;2023-06-26T09:49:31;22.70;64.20
44775;DHT22;31340;51.402;0.016;2023-06-26T09:52:00;22.80;64.10
44775;DHT22;31340;51.402;0.016;2023-06-26T09:54:27;23.00;62.80
44775;DHT22;31340;51.402;0.016;2023-06-26T09:57:07;23.10;61.70
44775;DHT22;31340;51.402;0.016;2023-06-26T09:59:36;23.20;60.60
44775;DHT22;31340;51.402;0.016;2023-06-26T10:02:03;23.30;60.60
44775;DHT22;31340;51.402;0.016;2023-06-26T10:04:32;23.40;60.70
44775;DHT22;31340;51.402;0.016;2023-06-26T10:07:11;23.50;60.20
44775;DHT22;31340;51.402;0.016;2023-06-26T10:09:41;23.60;59.60
44775;DHT22;31340;51.402;0.016;2023-06-26T10:12:17;23.70;59.40
44775;DHT22;31340;51.402;0.016;2023-06-26T10:14:47;23.80;58.90
44775;DHT22;31340;51.402;0.016;2023-06-26T10:17:20;24.00;57.70
44775;DHT22;31340;51.402;0.016;2023-06-26T10:19:49;24.10;56.90
44775;DHT22;31340;51.402;0.016;2023-06-26T10:22:21;24.30;56.10
44775;DHT22;31340;51.402;0.016;2023-06-26T10:24:50;24.40;55.70
44775;DHT22;31340;51.402;0.016;2023-06-26T10:27:20;24.50;54.90
44775;DHT22;31340;51.402;0.016;2023-06-26T10:30:02;24.50;54.20
44775;DHT22;31340;51.402;0.016;2023-06-26T10:32:31;24.60;54.00
44775;DHT22;31340;51.402;0.016;2023-06-26T10:34:59;24.60;54.20
44775;DHT22;31340;51.402;0.016;2023-06-26T10:37:50;24.60;54.20
44775;DHT22;31340;51.402;0.016;2023-06-26T10:40:25;24.70;53.60
44775;DHT22;31340;51.402;0.016;2023-06-26T10:43:06;24.80;53.70
44775;DHT22;31340;51.402;0.016;2023-06-26T10:45:36;24.90;53.70
44775;DHT22;31340;51.402;0.016;2023-06-26T10:48:04;24.90;52.40
44775;DHT22;31340;51.402;0.016;2023-06-26T10:50:34;25.00;51.80
44775;DHT22;31340;51.402;0.016;2023-06-26T10:55:43;25.10;51.30
44775;DHT22;31340;51.402;0.016;2023-06-26T11:03:40;25.10;51.00
44775;DHT22;31340;51.402;0.016;2023-06-26T11:06:16;25.10;51.30
44775;DHT22;31340;51.402;0.016;2023-06-26T11:08:52;25.20;51.10
44775;DHT22;31340;51.402;0.016;2023-06-26T11:14:27;25.20;51.60
44775;DHT22;31340;51.402;0.016;2023-06-26T11:16:58;25.20;51.90
44775;DHT22;31340;51.402;0.016;2023-06-26T11:19:27;25.20;51.20
44775;DHT22;31340;51.402;0.016;2023-06-26T11:22:03;25.30;50.40
44775;DHT22;31340;51.402;0.016;2023-06-26T11:24:32;25.30;50.30
44775;DHT22;31340;51.402;0.016;2023-06-26T11:27:01;25.30;50.20
44775;DHT22;31340;51.402;0.016;2023-06-26T11:29:30;25.30;50.20
44775;DHT22;31340;51.402;0.016;2023-06-26T11:32:02;25.40;50.40
44775;DHT22;31340;51.402;0.016;2023-06-26T11:34:33;25.40;50.70
44775;DHT22;31340;51.402;0.016;2023-06-26T11:37:01;25.50;50.70
44775;DHT22;31340;51.402;0.016;2023-06-26T11:39:29;25.60;50.20
44775;DHT22;31340;51.402;0.016;2023-06-26T11:41:57;25.60;50.50
44775;DHT22;31340;51.402;0.016;2023-06-26T11:44:29;25.70;49.80
44775;DHT22;31340;51.402;0.016;2023-06-26T11:46:58;25.90;49.20
44775;DHT22;31340;51.402;0.016;2023-06-26T11:49:25;26.00;48.60
44775;DHT22;31340;51.402;0.016;2023-06-26T11:51:54;26.10;48.20
44775;DHT22;31340;51.402;0.016;2023-06-26T11:54:27;26.30;48.10
44775;DHT22;31340;51.402;0.016;2023-06-26T11:56:59;26.40;48.00
44775;DHT22;31340;51.402;0.016;2023-06-26T11:59:53;26.60;47.00
44775;DHT22;31340;51.402;0.016;2023-06-26T12:02:21;26.80;46.10
44775;DHT22;31340;51.402;0.016;2023-06-26T12:04:48;26.90;46.20
44775;DHT22;31340;51.402;0.016;2023-06-26T12:07:17;27.00;45.60
44775;DHT22;31340;51.402;0.016;2023-06-26T12:09:46;27.10;44.90
44775;DHT22;31340;51.402;0.016;2023-06-26T12:12:16;27.10;44.20
44775;DHT22;31340;51.402;0.016;2023-06-26T12:14:44;27.00;44.20
44775;DHT22;31340;51.402;0.016;2023-06-26T12:17:13;27.00;44.50
44775;DHT22;31340;51.402;0.016;2023-06-26T12:19:46;26.90;44.50
44775;DHT22;31340;51.402;0.016;2023-06-26T12:22:18;26.90;44.40
44775;DHT22;31340;51.402;0.016;2023-06-26T12:24:47;26.90;44.80
44775;DHT22;31340;51.402;0.016;2023-06-26T12:27:18;26.90;45.00
44775;DHT22;31340;51.402;0.016;2023-06-26T12:29:51;27.00;45.30
44775;DHT22;31340;51.402;0.016;2023-06-26T12:32:24;27.20;45.20
44775;DHT22;31340;51.402;0.016;2023-06-26T12:34:56;27.20;44.10
44775;DHT22;31340;51.402;0.016;2023-06-26T12:37:24;27.30;45.10
44775;DHT22;31340;51.402;0.016;2023-06-26T12:39:53;27.50;44.80
44775;DHT22;31340;51.402;0.016;2023-06-26T12:42:23;27.60;44.40
44775;DHT22;31340;51.402;0.016;2023-06-26T12:44:51;27.80;44.00
44775;DHT22;31340;51.402;0.016;2023-06-26T12:47:24;28.00;43.70
44775;DHT22;31340;51.402;0.016;2023-06-26T12:49:53;28.30;43.00
44775;DHT22;31340;51.402;0.016;2023-06-26T12:52:21;28.50;42.60
44775;DHT22;31340;51.402;0.016;2023-06-26T12:54:53;28.70;42.50
44775;DHT22;31340;51.402;0.016;2023-06-26T12:57:21;28.80;41.10
44775;DHT22;31340;51.402;0.016;2023-06-26T12:59:49;29.00;41.00
44775;DHT22;31340;51.402;0.016;2023-06-26T13:02:17;29.10;40.20
44775;DHT22;31340;51.402;0.016;2023-06-26T13:04:45;29.30;40.00
44775;DHT22;31340;51.402;0.016;2023-06-26T13:07:13;29.40;40.20
44775;DHT22;31340;51.402;0.016;2023-06-26T13:09:40;29.50;40.00
44775;DHT22;31340;51.402;0.016;2023-06-26T13:12:08;29.50;39.00
44775;DHT22;31340;51.402;0.016;2023-06-26T13:14:36;29.50;38.70
44775;DHT22;31340;51.402;0.016;2023-06-26T13:17:05;29.60;38.80
44775;DHT22;31340;51.402;0.016;2023-06-26T13:19:36;29.60;38.50
44775;DHT22;31340;51.402;0.016;2023-06-26T13:22:04;29.50;38.70
44775;DHT22;31340;51.402;0.016;2023-06-26T13:24:32;29.50;39.40
44775;DHT22;31340;51.402;0.016;2023-06-26T13:27:00;29.40;38.90
44775;DHT22;31340;51.402;0.016;2023-06-26T13:29:28;29.40;38.80
44775;DHT22;31340;51.402;0.016;2023-06-26T13:31:56;29.30;39.00
44775;DHT22;31340;51.402;0.016;2023-06-26T13:34:24;29.10;39.10
44775;DHT22;31340;51.402;0.016;2023-06-26T13:36:55;29.00;39.30
44775;DHT22;31340;51.402;0.016;2023-06-26T13:39:23;28.90;39.60
44775;DHT22;31340;51.402;0.016;2023-06-26T13:41:50;28.90;39.50
44775;DHT22;31340;51.402;0.016;2023-06-26T13:44:18;28.80;39.30
44775;DHT22;31340;51.402;0.016;2023-06-26T13:47:05;28.80;39.50
44775;DHT22;31340;51.402;0.016;2023-06-26T13:49:36;28.70;39.90
44775;DHT22;31340;51.402;0.016;2023-06-26T13:52:04;28.60;40.50
44775;DHT22;31340;51.402;0.016;2023-06-26T13:54:31;28.50;40.50
44775;DHT22;31340;51.402;0.016;2023-06-26T13:56:59;28.40;40.10
44775;DHT22;31340;51.402;0.016;2023-06-26T13:59:29;28.20;40.30
44775;DHT22;31340;51.402;0.016;2023-06-26T14:01:57;28.10;40.60
44775;DHT22;31340;51.402;0.016;2023-06-26T14:04:25;28.00;40.80
44775;DHT22;31340;51.402;0.016;2023-06-26T14:06:53;27.90;40.90
44775;DHT22;31340;51.402;0.016;2023-06-26T14:09:20;27.80;41.20
44775;DHT22;31340;51.402;0.016;2023-06-26T14:11:48;27.70;41.60
44775;DHT22;31340;51.402;0.016;2023-06-26T14:14:15;27.60;41.80
44775;DHT22;31340;51.402;0.016;2023-06-26T14:16:43;27.50;41.90
44775;DHT22;31340;51.402;0.016;2023-06-26T14:19:10;27.40;42.50
44775;DHT22;31340;51.402;0.016;2023-06-26T14:21:41;27.30;42.90
44775;DHT22;31340;51.402;0.016;2023-06-26T14:24:09;27.20;43.20
44775;DHT22;31340;51.402;0.016;2023-06-26T14:26:37;27.20;43.40
44775;DHT22;31340;51.402;0.016;2023-06-26T14:29:06;27.20;43.40
44775;DHT22;31340;51.402;0.016;2023-06-26T14:31:34;27.20;43.20
44775;DHT22;31340;51.402;0.016;2023-06-26T14:34:01;27.10;43.50
44775;DHT22;31340;51.402;0.016;2023-06-26T14:36:30;27.10;43.80
44775;DHT22;31340;51.402;0.016;2023-06-26T14:38:59;27.00;43.70
44775;DHT22;31340;51.402;0.016;2023-06-26T14:41:27;27.00;43.80
44775;DHT22;31340;51.402;0.016;2023-06-26T14:43:55;26.90;44.00
44775;DHT22;31340;51.402;0.016;2023-06-26T14:46:24;26.90;43.90
44775;DHT22;31340;51.402;0.016;2023-06-26T14:48:52;26.80;44.30
44775;DHT22;31340;51.402;0.016;2023-06-26T14:51:22;26.70;44.10
44775;DHT22;31340;51.402;0.016;2023-06-26T14:53:50;26.70;44.10
44775;DHT22;31340;51.402;0.016;2023-06-26T14:56:18;26.70;43.70
44775;DHT22;31340;51.402;0.016;2023-06-26T14:58:45;26.80;43.40
44775;DHT22;31340;51.402;0.016;2023-06-26T15:01:15;26.80;43.40
44775;DHT22;31340;51.402;0.016;2023-06-26T15:03:43;26.90;43.80
44775;DHT22;31340;51.402;0.016;2023-06-26T15:06:11;27.00;44.00
44775;DHT22;31340;51.402;0.016;2023-06-26T15:08:38;27.10;43.90
44775;DHT22;31340;51.402;0.016;2023-06-26T15:11:06;27.20;43.80
44775;DHT22;31340;51.402;0.016;2023-06-26T15:13:33;27.30;43.60
44775;DHT22;31340;51.402;0.016;2023-06-26T15:16:01;27.40;43.80
44775;DHT22;31340;51.402;0.016;2023-06-26T15:18:29;27.40;43.70
44775;DHT22;31340;51.402;0.016;2023-06-26T15:20:56;27.40;43.20
44775;DHT22;31340;51.402;0.016;2023-06-26T15:23:24;27.40;43.60
44775;DHT22;31340;51.402;0.016;2023-06-26T15:25:51;27.40;43.30
44775;DHT22;31340;51.402;0.016;2023-06-26T15:28:19;27.40;43.10
44775;DHT22;31340;51.402;0.016;2023-06-26T15:30:47;27.30;42.70
44775;DHT22;31340;51.402;0.016;2023-06-26T15:33:14;27.30;42.60
44775;DHT22;31340;51.402;0.016;2023-06-26T15:35:42;27.20;42.70
44775;DHT22;31340;51.402;0.016;2023-06-26T15:38:10;27.10;42.60
44775;DHT22;31340;51.402;0.016;2023-06-26T15:40:38;27.00;42.80
44775;DHT22;31340;51.402;0.016;2023-06-26T15:43:06;26.90;43.10
44775;DHT22;31340;51.402;0.016;2023-06-26T15:45:33;26.80;43.40
44775;DHT22;31340;51.402;0.016;2023-06-26T15:48:01;26.80;43.70
44775;DHT22;31340;51.402;0.016;2023-06-26T15:50:29;26.70;43.90
44775;DHT22;31340;51.402;0.016;2023-06-26T15:52:56;26.60;44.20
44775;DHT22;31340;51.402;0.016;2023-06-26T15:55:24;26.60;44.40
44775;DHT22;31340;51.402;0.016;2023-06-26T15:57:52;26.50;44.50
44775;DHT22;31340;51.402;0.016;2023-06-26T16:00:19;26.50;44.80
44775;DHT22;31340;51.402;0.016;2023-06-26T16:02:47;26.40;44.50
44775;DHT22;31340;51.402;0.016;2023-06-26T16:05:16;26.40;44.40